Time;durP1;ratioP1;P1;durP2;ratioP2;P2;SDS_P1;SDS_P2;PMS_P1;PMS_P2;Temp;Humidity;BMP_temperature;BMP_pressure;BME280_temperature;BME280_humidity;BME280_pressure;Samples;Min_cycle;Max_cycle;Signal;HPM_P1;HPM_P2
2022/03/04 00:00:11;;;;;;;;;86.33;65.00;;;;;3.47;59.47;99376.88;6313384;20;3654383;-45
2022/03/04 00:02:40;;;;;;;;;87.00;66.00;;;;;3.67;59.83;99370.81;6313211;20;3650217;-45
2022/03/04 00:05:10;;;;;;;;;89.67;66.67;;;;;3.50;59.26;99377.66;6314565;20;3655421;-45
2022/03/04 00:07:40;;;;;;;;;92.00;66.00;;;;;3.70;60.72;99368.03;6313262;20;3656480;-49
2022/03/04 00:10:10;;;;;;;;;96.00;70.33;;;;;3.51;59.71;99373.19;6313051;20;3665226;-47
2022/03/04 00:12:39;;;;;;;;;93.33;68.00;;;;;3.48;60.06;99373.31;6280026;20;3650241;-46
2022/03/04 00:15:09;;;;;;;;;87.00;64.33;;;;;3.81;58.84;99375.59;6314229;20;3658712;-45
2022/03/04 00:17:39;;;;;;;;;85.67;67.33;;;;;3.43;59.43;99377.94;6313902;20;3633677;-45
2022/03/04 00:20:09;;;;;;;;;91.67;67.33;;;;;3.68;61.05;99380.50;6312001;20;3659594;-45
2022/03/04 00:22:39;;;;;;;;;89.67;63.00;;;;;3.72;60.26;99382.13;6313301;20;3659596;-45
2022/03/04 00:25:09;;;;;;;;;85.33;64.67;;;;;3.76;58.98;99382.88;6315351;20;3660659;-46
2022/03/04 00:27:39;;;;;;;;;85.33;65.33;;;;;3.72;58.95;99377.69;6314481;20;3638828;-46
2022/03/04 00:30:10;;;;;;;;;92.67;64.67;;;;;3.91;58.93;99377.81;6310942;20;3671164;-47
2022/03/04 00:32:40;;;;;;;;;85.00;65.33;;;;;3.69;59.13;99380.47;6281011;20;2875470;-45
2022/03/04 00:35:10;;;;;;;;;89.67;63.00;;;;;3.89;58.81;99384.13;6309566;20;3667951;-46
2022/03/04 00:37:40;;;;;;;;;90.33;65.67;;;;;3.65;60.68;99386.78;6278420;20;3655484;-46
2022/03/04 00:40:12;;;;;;;;;87.00;65.00;;;;;3.95;58.44;99384.75;6313227;20;2900405;-45
2022/03/04 00:42:41;;;;;;;;;86.33;63.33;;;;;4.07;57.41;99383.38;6314041;20;3660699;-47
2022/03/04 00:45:11;;;;;;;;;91.67;68.00;;;;;4.02;57.91;99389.81;6311893;20;3645073;-45
2022/03/04 00:47:41;;;;;;;;;83.67;63.67;;;;;4.02;57.69;99382.72;6314841;20;3648152;-45
2022/03/04 00:50:11;;;;;;;;;81.33;61.67;;;;;3.93;58.17;99385.75;6311010;20;2881592;-48
2022/03/04 00:52:41;;;;;;;;;83.33;65.67;;;;;3.77;59.15;99381.97;6313504;20;3641882;-45
2022/03/04 00:55:10;;;;;;;;;82.00;63.33;;;;;3.71;60.14;99377.72;6313510;20;3645012;-47
2022/03/04 00:57:39;;;;;;;;;84.00;65.00;;;;;3.81;60.04;99380.91;6313684;20;2765947;-47
2022/03/04 01:00:09;;;;;;;;;88.00;65.67;;;;;4.08;58.84;99378.94;6277960;20;3648138;-48
2022/03/04 01:02:40;;;;;;;;;86.00;63.33;;;;;4.04;58.50;99380.88;6310997;20;3649219;-47
2022/03/04 01:05:10;;;;;;;;;77.67;57.67;;;;;3.64;60.34;99382.44;6314597;20;3654504;-45
2022/03/04 01:07:39;;;;;;;;;91.67;65.33;;;;;3.85;59.96;99382.53;6310879;20;3667046;-46
2022/03/04 01:10:09;;;;;;;;;85.33;65.67;;;;;3.84;59.63;99386.09;6278196;20;3624214;-46
2022/03/04 01:12:39;;;;;;;;;83.67;63.00;;;;;3.97;59.69;99385.53;6312389;20;3638808;-46
2022/03/04 01:15:09;;;;;;;;;73.50;56.50;;;;;3.85;59.02;99387.84;6313007;20;2869034;-46
2022/03/04 01:17:39;;;;;;;;;82.67;63.33;;;;;4.08;58.07;99390.47;6279188;20;3635789;-46
2022/03/04 01:20:10;;;;;;;;;79.00;61.67;;;;;3.94;58.25;99384.81;6309658;20;2882667;-46
2022/03/04 01:22:40;;;;;;;;;76.33;54.00;;;;;4.09;58.73;99394.81;6307460;20;3642904;-46
2022/03/04 01:25:10;;;;;;;;;67.50;52.50;;;;;3.98;59.67;99399.72;6312737;20;2864881;-46
2022/03/04 01:27:40;;;;;;;;;75.67;56.67;;;;;3.82;61.40;99398.56;6277263;20;3640190;-46
2022/03/04 01:30:11;;;;;;;;;74.50;58.50;;;;;4.07;61.82;99391.38;6311296;20;2880453;-45
2022/03/04 01:32:41;;;;;;;;;73.33;55.00;;;;;4.04;62.59;99386.19;6281764;20;3631492;-46
2022/03/04 01:35:11;;;;;;;;;75.00;55.67;;;;;4.27;64.71;99395.03;6312969;20;3651254;-45
2022/03/04 01:37:43;;;;;;;;;73.33;54.33;;;;;4.30;64.51;99394.91;6312177;20;3649203;-45
2022/03/04 01:40:13;;;;;;;;;71.00;55.00;;;;;3.96;64.41;99397.09;6308929;20;3637106;-46
2022/03/04 01:42:43;;;;;;;;;70.00;54.33;;;;;4.04;63.90;99398.59;6310480;20;2879555;-46
2022/03/04 01:45:13;;;;;;;;;75.33;58.33;;;;;4.12;64.18;99400.00;6310881;20;2866961;-47
2022/03/04 01:47:42;;;;;;;;;67.50;52.50;;;;;3.85;64.67;99393.16;6311898;20;2873277;-46
2022/03/04 01:50:11;;;;;;;;;72.50;57.50;;;;;3.99;64.02;99385.50;6279373;20;2876340;-45
2022/03/04 01:52:40;;;;;;;;;60.00;48.50;;;;;4.24;64.38;99387.16;6277823;20;2856546;-46
2022/03/04 01:55:11;;;;;;;;;70.00;48.00;;;;;4.32;62.99;99383.28;6280960;20;2887805;-45
2022/03/04 01:57:40;;;;;;;;;71.67;53.00;;;;;4.37;62.71;99378.66;6312336;20;2884105;-45
2022/03/04 02:00:14;;;;;;;;;71.67;55.33;;;;;4.44;61.93;99387.22;6309699;20;3632652;-45
2022/03/04 02:02:45;;;;;;;;;71.00;51.33;;;;;4.12;62.94;99373.44;6311474;20;3648201;-52
2022/03/04 02:05:17;;;;;;;;;68.00;56.00;;;;;3.93;63.53;99378.63;6311275;20;2859670;-50
2022/03/04 02:07:47;;;;;;;;;74.33;54.67;;;;;4.31;62.59;99375.34;6276761;20;2889934;-52
2022/03/04 02:10:16;;;;;;;;;69.00;50.50;;;;;4.36;62.27;99378.69;6309708;20;2874268;-51
2022/03/04 02:12:45;;;;;;;;;74.67;56.00;;;;;4.08;63.17;99369.19;6276360;20;2884688;-52
2022/03/04 02:15:15;;;;;;;;;70.00;54.00;;;;;4.50;62.42;99371.03;6311535;20;2876395;-54
2022/03/04 02:17:45;;;;;;;;;65.33;52.33;;;;;4.44;62.85;99371.25;6310171;20;2870089;-51
2022/03/04 02:20:14;;;;;;;;;69.33;53.67;;;;;4.52;61.53;99374.47;6310863;20;2876325;-53
2022/03/04 02:22:44;;;;;;;;;76.00;55.33;;;;;4.65;61.03;99364.19;6309644;20;3645036;-51
2022/03/04 02:25:13;;;;;;;;;74.67;54.33;;;;;4.47;61.59;99372.94;6312902;20;3637748;-53
2022/03/04 02:27:43;;;;;;;;;90.33;65.67;;;;;4.55;62.17;99368.16;6311769;20;3673209;-50
2022/03/04 02:30:14;;;;;;;;;74.33;55.00;;;;;4.56;61.44;99376.06;6277418;20;3633574;-51
2022/03/04 02:32:43;;;;;;;;;75.33;58.00;;;;;4.22;62.81;99370.44;6311349;20;3643122;-51
2022/03/04 02:35:13;;;;;;;;;65.33;51.33;;;;;4.33;60.87;99368.19;6309290;20;2881630;-52
2022/03/04 02:37:42;;;;;;;;;68.67;54.33;;;;;4.34;61.17;99377.88;6310648;20;2881603;-49
2022/03/04 02:40:14;;;;;;;;;70.00;54.00;;;;;4.36;61.60;99368.06;6310659;20;2879415;-54
2022/03/04 02:42:43;;;;;;;;;73.33;56.00;;;;;4.50;59.35;99376.34;6311683;20;3623159;-50
2022/03/04 02:45:13;;;;;;;;;69.33;54.67;;;;;4.40;59.30;99375.00;6315792;20;2885866;-53
2022/03/04 02:47:43;;;;;;;;;73.67;58.00;;;;;4.18;60.52;99367.88;6317682;20;2879414;-53
2022/03/04 02:50:12;;;;;;;;;74.00;57.33;;;;;4.16;62.38;99371.53;6311258;20;2881550;-54
2022/03/04 02:52:42;;;;;;;;;69.00;52.33;;;;;4.03;61.19;99379.16;6316099;20;2879508;-53
2022/03/04 02:55:12;;;;;;;;;67.50;52.00;;;;;3.87;60.13;99376.22;6313103;20;2856541;-52
2022/03/04 02:57:46;;;;;;;;;60.00;48.00;;;;;3.96;59.14;99375.00;6283539;20;2864820;-53
2022/03/04 03:00:17;;;;;;;;;67.67;51.67;;;;;3.70;57.72;99373.34;6282099;20;2877430;-51
2022/03/04 03:02:46;;;;;;;;;65.00;53.00;;;;;4.07;56.54;99377.22;6314498;20;2871198;-53
2022/03/04 03:05:16;;;;;;;;;56.00;40.00;;;;;4.18;55.42;99372.31;6285334;20;2887871;-49
2022/03/04 03:07:44;;;;;;;;;67.00;51.00;;;;;3.97;55.80;99372.25;6315939;20;2871100;-52
2022/03/04 03:10:14;;;;;;;;;67.00;51.00;;;;;4.16;54.96;99375.06;6282103;20;2885710;-51
2022/03/04 03:12:43;;;;;;;;;67.00;50.50;;;;;4.06;55.47;99371.06;6312553;20;2864857;-49
2022/03/04 03:15:15;;;;;;;;;60.00;49.00;;;;;4.17;55.14;99374.13;6280706;20;2873191;-51
2022/03/04 03:17:43;;;;;;;;;71.00;48.67;;;;;4.15;55.20;99368.00;6315244;20;3608593;-50
2022/03/04 03:20:13;;;;;;;;;67.00;52.67;;;;;3.88;55.90;99374.44;6279686;20;2884670;-50
2022/03/04 03:22:43;;;;;;;;;68.67;52.67;;;;;3.93;55.79;99375.13;6312195;20;2868032;-54
2022/03/04 03:25:12;;;;;;;;;72.50;55.00;;;;;4.11;55.44;99379.69;6314196;20;2876402;-50
2022/03/04 03:27:42;;;;;;;;;70.67;53.00;;;;;4.25;54.38;99380.94;6282096;20;2878411;-50
2022/03/04 03:30:12;;;;;;;;;63.50;52.00;;;;;3.82;55.39;99379.97;6315201;20;2866326;-52
2022/03/04 03:32:42;;;;;;;;;68.33;54.33;;;;;3.89;55.83;99379.66;6284105;20;2879633;-52
2022/03/04 03:35:11;;;;;;;;;67.00;52.00;;;;;3.64;56.85;99385.06;6315199;20;2870117;-51
2022/03/04 03:37:41;;;;;;;;;70.67;53.00;;;;;3.70;56.01;99376.00;6284756;20;2875394;-50
2022/03/04 03:40:12;;;;;;;;;61.50;47.00;;;;;3.81;55.00;99375.59;6313798;20;2871091;-51
2022/03/04 03:42:41;;;;;;;;;67.00;49.50;;;;;3.71;55.54;99386.59;6284681;20;2853454;-51
2022/03/04 03:45:12;;;;;;;;;68.00;52.00;;;;;3.66;55.75;99374.38;6283803;20;2869147;-54
2022/03/04 03:47:42;;;;;;;;;69.67;51.67;;;;;3.58;55.23;99380.00;6316056;20;2889219;-50
2022/03/04 03:50:12;;;;;;;;;68.33;54.33;;;;;3.76;54.97;99388.19;6313742;20;2878364;-49
2022/03/04 03:52:42;;;;;;;;;70.00;51.67;;;;;3.82;54.74;99385.28;6315125;20;3631541;-49
2022/03/04 03:55:10;;;;;;;;;59.50;50.50;;;;;3.96;54.55;99397.09;6310283;20;2497169;-53
2022/03/04 03:57:39;;;;;;;;;72.00;50.33;;;;;3.73;54.59;99395.31;6282898;20;2882541;-50
2022/03/04 04:00:10;;;;;;;;;71.00;53.50;;;;;3.73;54.85;99397.13;6312547;20;2882968;-50
2022/03/04 04:02:40;;;;;;;;;70.50;54.00;;;;;3.49;55.77;99396.28;6283651;20;2873255;-50
2022/03/04 04:05:13;;;;;;;;;76.00;56.00;;;;;3.52;56.25;99394.34;6283665;20;3649341;-51
2022/03/04 04:07:43;;;;;;;;;74.00;53.00;;;;;3.53;55.38;99397.91;6314226;20;3627315;-51
2022/03/04 04:10:10;;;;;;;;;69.00;51.50;;;;;3.46;55.56;99391.09;6309917;20;2500491;-53
2022/03/04 04:12:40;;;;;;;;;72.00;55.33;;;;;3.17;56.46;99398.31;6282775;20;3633637;-49
2022/03/04 04:15:10;;;;;;;;;71.67;52.67;;;;;3.33;56.39;99395.13;6315342;20;3633644;-52
2022/03/04 04:17:39;;;;;;;;;68.50;50.00;;;;;3.40;56.28;99399.28;6310905;20;2874269;-53
2022/03/04 04:20:09;;;;;;;;;65.00;50.50;;;;;3.43;56.48;99397.38;6281062;20;2869068;-51
2022/03/04 04:22:39;;;;;;;;;67.67;50.67;;;;;3.27;57.01;99402.38;6284630;20;2873235;-53
2022/03/04 04:25:09;;;;;;;;;75.00;57.00;;;;;3.24;57.09;99401.63;6313410;20;2880483;-52
2022/03/04 04:27:38;;;;;;;;;77.67;52.67;;;;;3.03;57.52;99401.47;6281728;20;3635724;-50
2022/03/04 04:30:09;;;;;;;;;66.00;49.00;;;;;3.19;57.94;99408.88;6312934;20;2873278;-51
2022/03/04 04:32:39;;;;;;;;;69.33;49.00;;;;;3.11;58.44;99398.56;6314757;20;2885690;-50
2022/03/04 04:35:09;;;;;;;;;71.00;54.50;;;;;2.98;58.59;99399.91;6311260;20;2855495;-50
2022/03/04 04:37:38;;;;;;;;;76.33;57.33;;;;;3.11;58.98;99403.84;6282732;20;2884804;-48
2022/03/04 04:40:09;;;;;;;;;75.33;57.33;;;;;3.30;58.65;99402.25;6312196;20;3638931;-50
2022/03/04 04:42:39;;;;;;;;;80.33;59.33;;;;;3.21;59.04;99405.25;6313748;20;3645131;-52
2022/03/04 04:45:10;;;;;;;;;76.67;59.67;;;;;3.17;60.49;99400.97;6314135;20;2883715;-48
2022/03/04 04:47:39;;;;;;;;;73.00;58.00;;;;;3.10;61.39;99412.72;6314167;20;2875337;-51
2022/03/04 04:50:10;;;;;;;;;83.00;63.33;;;;;3.13;61.57;99404.63;6309221;20;2886056;-52
2022/03/04 04:52:39;;;;;;;;;81.00;60.33;;;;;3.15;62.02;99410.75;6312785;20;3647140;-51
2022/03/04 04:55:09;;;;;;;;;76.33;57.33;;;;;3.06;63.26;99404.00;6313960;20;3649208;-45
2022/03/04 04:57:39;;;;;;;;;81.33;60.00;;;;;3.18;65.05;99413.31;6313544;20;3655573;-45
2022/03/04 05:00:10;;;;;;;;;80.00;59.00;;;;;3.35;62.52;99414.50;6311462;20;3636743;-46
2022/03/04 05:02:39;;;;;;;;;78.00;58.00;;;;;3.38;62.54;99414.38;6313182;20;3639965;-45
2022/03/04 05:05:09;;;;;;;;;80.00;60.00;;;;;3.57;63.51;99415.44;6312746;20;2896183;-45
2022/03/04 05:07:39;;;;;;;;;77.67;51.67;;;;;3.26;63.46;99415.69;6313864;20;2894064;-46
2022/03/04 05:10:09;;;;;;;;;74.00;54.67;;;;;3.40;62.32;99415.22;6307738;20;2891127;-45
2022/03/04 05:12:39;;;;;;;;;72.00;56.00;;;;;3.54;62.14;99420.84;6310021;20;2871085;-46
2022/03/04 05:15:09;;;;;;;;;84.33;61.33;;;;;3.36;63.11;99422.38;6280909;20;3658586;-46
2022/03/04 05:17:38;;;;;;;;;76.00;60.00;;;;;3.27;63.86;99428.03;6310925;20;2876324;-46
2022/03/04 05:20:08;;;;;;;;;75.67;55.00;;;;;3.17;63.83;99431.94;6279329;20;2886853;-47
2022/03/04 05:22:38;;;;;;;;;81.67;59.67;;;;;3.30;63.95;99426.13;6312758;20;3650325;-45
2022/03/04 05:25:08;;;;;;;;;87.00;65.00;;;;;3.08;64.55;99431.34;6312163;20;3642982;-45
2022/03/04 05:27:38;;;;;;;;;78.00;58.67;;;;;3.08;64.94;99438.41;6311671;20;3632577;-46
2022/03/04 05:30:09;;;;;;;;;78.00;62.00;;;;;3.05;65.18;99433.22;6308903;20;2863842;-45
2022/03/04 05:32:38;;;;;;;;;77.33;60.00;;;;;3.21;65.20;99445.06;6312445;20;3632654;-46
2022/03/04 05:35:08;;;;;;;;;73.67;57.67;;;;;2.96;65.66;99442.38;6311399;20;3635766;-49
2022/03/04 05:37:40;;;;;;;;;74.67;59.67;;;;;2.91;65.77;99436.38;6312520;20;2881633;-47
2022/03/04 05:40:11;;;;;;;;;73.50;59.50;;;;;2.96;65.80;99449.47;6311356;20;2871117;-46
2022/03/04 05:42:40;;;;;;;;;73.33;55.67;;;;;3.08;65.62;99456.97;6280148;20;2871089;-45
2022/03/04 05:45:10;;;;;;;;;78.50;61.50;;;;;3.10;64.61;99457.81;6310550;20;2875367;-45
2022/03/04 05:47:39;;;;;;;;;78.67;60.33;;;;;3.14;65.00;99462.09;6280521;20;2885804;-46
2022/03/04 05:50:10;;;;;;;;;76.67;56.33;;;;;3.32;64.12;99457.94;6309898;20;2887914;-47
2022/03/04 05:52:40;;;;;;;;;76.33;54.33;;;;;3.05;65.22;99460.63;6313376;20;2891015;-46
2022/03/04 05:55:10;;;;;;;;;77.33;56.67;;;;;3.19;64.49;99462.81;6312649;20;2893058;-46
2022/03/04 05:57:39;;;;;;;;;80.67;59.67;;;;;3.65;66.27;99471.75;6311880;20;3648194;-48
2022/03/04 06:00:10;;;;;;;;;81.00;61.00;;;;;3.66;65.98;99467.31;6305873;20;3649392;-47
2022/03/04 06:02:40;;;;;;;;;75.67;55.33;;;;;3.58;63.61;99470.25;6312624;20;2882643;-49
2022/03/04 06:05:09;;;;;;;;;61.00;45.00;;;;;3.35;64.14;99473.75;6310794;20;2881559;-46
2022/03/04 06:07:39;;;;;;;;;74.67;56.00;;;;;3.40;63.27;99484.19;6276831;20;2880605;-44
2022/03/04 06:10:09;;;;;;;;;66.50;53.50;;;;;3.82;61.57;99484.41;6307273;20;2856558;-44
2022/03/04 06:12:38;;;;;;;;;73.67;57.67;;;;;3.84;61.50;99489.66;6276879;20;2883776;-46
2022/03/04 06:15:09;;;;;;;;;76.67;54.33;;;;;3.66;61.75;99489.44;6311132;20;3636976;-45
2022/03/04 06:17:38;;;;;;;;;65.00;52.00;;;;;3.87;61.56;99501.06;6311126;20;2819033;-45
2022/03/04 06:20:09;;;;;;;;;77.33;55.00;;;;;3.90;60.72;99502.72;6284422;20;3636744;-44
2022/03/04 06:22:39;;;;;;;;;81.33;58.67;;;;;3.65;62.63;99508.91;6315421;20;3653481;-44
2022/03/04 06:25:10;;;;;;;;;66.00;54.00;;;;;3.73;63.80;99512.16;6316489;20;2869040;-44
2022/03/04 06:28:02;;;;;;;;;74.33;59.00;;;;;3.60;65.37;99521.47;6285233;20;2872153;-44
2022/03/04 06:30:38;;;;;;;;;74.67;57.00;;;;;3.47;66.79;99520.19;6316618;20;3644002;-44
2022/03/04 06:36:10;;;;;;;;;73.67;54.00;;;;;3.89;66.74;99520.44;6315971;20;2875319;-44
2022/03/04 06:38:45;;;;;;;;;76.00;56.33;;;;;3.97;65.94;99522.81;6317623;20;3635675;-44
2022/03/04 06:41:15;;;;;;;;;66.00;48.67;;;;;3.83;66.06;99515.34;6316066;20;3633576;-44
2022/03/04 06:43:45;;;;;;;;;75.33;58.00;;;;;3.66;68.05;99526.59;6283260;20;2875295;-43
2022/03/04 06:46:16;;;;;;;;;74.00;56.00;;;;;4.09;66.84;99518.84;6316078;20;3639939;-43
2022/03/04 06:48:46;;;;;;;;;69.67;55.67;;;;;3.90;68.26;99518.66;6314651;20;2877465;-43
2022/03/04 06:51:14;;;;;;;;;66.50;51.00;;;;;4.27;66.93;99522.59;6317758;20;2869039;-44
2022/03/04 06:53:44;;;;;;;;;79.67;61.33;;;;;3.99;67.67;99513.00;6283973;20;2884769;-47
2022/03/04 06:56:17;;;;;;;;;84.00;63.33;;;;;4.13;69.15;99525.75;6314635;20;3646159;-46
2022/03/04 06:58:51;;;;;;;;;75.00;59.00;;;;;4.14;68.49;99533.66;6312729;20;2884620;-44
2022/03/04 07:01:21;;;;;;;;;74.33;58.33;;;;;4.48;68.01;99527.06;6283973;20;2889965;-44
2022/03/04 07:03:51;;;;;;;;;75.67;56.67;;;;;4.18;70.29;99531.75;6315362;20;2877456;-44
2022/03/04 07:06:20;;;;;;;;;75.33;55.00;;;;;4.24;70.11;99536.84;6316195;20;2883597;-44
2022/03/04 07:08:50;;;;;;;;;83.00;62.00;;;;;4.57;68.12;99531.13;6312577;20;3645541;-45
2022/03/04 07:11:20;;;;;;;;;79.33;56.33;;;;;4.33;69.02;99530.31;6316223;20;3639954;-45
2022/03/04 07:13:50;;;;;;;;;75.00;58.67;;;;;4.70;66.61;99532.38;6314556;20;3632570;-45
2022/03/04 07:16:19;;;;;;;;;80.33;58.67;;;;;4.67;66.25;99536.97;6317786;20;3659623;-44
2022/03/04 07:18:49;;;;;;;;;73.33;57.00;;;;;5.01;65.49;99547.97;6314739;20;2867045;-48
2022/03/04 07:21:19;;;;;;;;;75.67;58.33;;;;;5.06;65.76;99542.47;6316993;20;3645044;-44
2022/03/04 07:23:48;;;;;;;;;74.67;58.00;;;;;5.27;64.92;99543.38;6314972;20;2881687;-45
2022/03/04 07:26:18;;;;;;;;;81.00;60.33;;;;;5.32;63.84;99552.03;6311541;20;2888980;-45
2022/03/04 07:28:48;;;;;;;;;86.33;65.00;;;;;5.54;62.53;99553.78;6314911;20;3646080;-43
2022/03/04 07:31:17;;;;;;;;;70.33;53.33;;;;;5.63;59.12;99548.03;6314672;20;3640853;-45
2022/03/04 07:33:47;;;;;;;;;64.33;52.00;;;;;5.52;58.26;99552.97;6315700;20;3620138;-46
2022/03/04 07:36:16;;;;;;;;;65.50;52.50;;;;;5.61;58.19;99553.44;6313521;20;2868001;-47
2022/03/04 07:38:45;;;;;;;;;70.67;53.00;;;;;5.65;58.03;99556.81;6283987;20;2872570;-43
2022/03/04 07:41:15;;;;;;;;;71.67;55.67;;;;;6.10;56.89;99547.75;6313979;20;3627345;-45
2022/03/04 07:43:44;;;;;;;;;77.67;56.00;;;;;6.01;57.15;99546.38;6316276;20;3642973;-45
2022/03/04 07:46:15;;;;;;;;;74.00;54.00;;;;;6.47;54.97;99554.03;6310965;20;3638743;-46
2022/03/04 07:48:44;;;;;;;;;65.00;54.00;;;;;6.35;55.89;99548.34;6315437;20;2867037;-46
2022/03/04 07:51:14;;;;;;;;;65.00;52.00;;;;;6.44;54.40;99544.38;6284345;20;3636807;-46
2022/03/04 07:53:44;;;;;;;;;68.67;52.00;;;;;6.01;55.10;99545.50;6316557;20;2881568;-44
2022/03/04 07:56:14;;;;;;;;;66.67;51.33;;;;;6.25;53.90;99548.84;6315149;20;2878670;-45
2022/03/04 07:58:44;;;;;;;;;72.33;53.33;;;;;6.50;53.11;99554.78;6316347;20;3636711;-45
2022/03/04 08:01:13;;;;;;;;;74.67;55.00;;;;;6.78;52.47;99558.78;6313211;20;3646633;-45
2022/03/04 08:03:50;;;;;;;;;69.33;54.33;;;;;6.33;49.86;99560.88;6314220;20;3634634;-46
2022/03/04 08:06:20;;;;;;;;;63.67;48.00;;;;;6.22;50.10;99559.66;6310700;20;2879520;-44
2022/03/04 08:08:48;;;;;;;;;58.00;47.50;;;;;5.90;49.00;99565.47;6314664;20;2854563;-45
2022/03/04 08:11:18;;;;;;;;;63.67;49.00;;;;;5.81;51.11;99571.19;6283452;20;2875400;-43
2022/03/04 08:13:47;;;;;;;;;74.33;56.00;;;;;6.22;48.70;99570.34;6313652;20;3625379;-45
2022/03/04 08:16:16;;;;;;;;;65.50;53.00;;;;;6.75;48.16;99569.63;6315469;20;2862763;-43
2022/03/04 08:18:47;;;;;;;;;69.00;53.33;;;;;6.37;48.59;99573.16;6280319;20;2874265;-44
2022/03/04 08:21:16;;;;;;;;;53.33;44.00;;;;;6.42;48.99;99577.41;6315639;20;2869115;-45
2022/03/04 08:23:46;;;;;;;;;69.33;58.33;;;;;6.37;48.49;99581.16;6315172;20;2874233;-45
2022/03/04 08:26:16;;;;;;;;;68.67;52.33;;;;;6.62;47.69;99577.34;6313853;20;3634621;-45
2022/03/04 08:28:45;;;;;;;;;70.67;54.33;;;;;6.17;48.57;99580.34;6314644;20;2891099;-44
2022/03/04 08:31:14;;;;;;;;;69.50;52.50;;;;;6.37;47.74;99581.16;6316788;20;2875327;-44
2022/03/04 08:33:47;;;;;;;;;68.67;56.67;;;;;5.98;47.84;99577.59;6282671;20;3629407;-47
2022/03/04 08:36:17;;;;;;;;;74.67;57.67;;;;;6.18;48.52;99579.38;6314548;20;3639793;-44
2022/03/04 08:38:47;;;;;;;;;67.00;51.67;;;;;5.68;49.24;99578.84;6317567;20;3627441;-44
2022/03/04 08:41:19;;;;;;;;;66.33;53.00;;;;;6.18;49.74;99580.25;6315523;20;3625333;-43
2022/03/04 08:43:51;;;;;;;;;78.00;62.67;;;;;6.50;48.36;99577.91;6318291;20;3620031;-48
2022/03/04 08:46:21;;;;;;;;;70.33;57.33;;;;;6.65;48.10;99577.19;6315878;20;2870136;-45
2022/03/04 08:48:51;;;;;;;;;72.33;57.33;;;;;6.29;48.95;99583.31;6317158;20;3631519;-45
2022/03/04 08:51:26;;;;;;;;;80.00;58.00;;;;;6.94;49.17;99581.13;6318136;20;3653390;-46
2022/03/04 08:53:56;;;;;;;;;62.00;49.00;;;;;7.49;48.30;99585.56;6317208;20;2872141;-42
2022/03/04 08:56:26;;;;;;;;;69.00;52.00;;;;;7.12;47.64;99590.06;6317620;20;3633551;-45
2022/03/04 08:58:55;;;;;;;;;51.33;36.67;;;;;6.16;49.96;99590.09;6316605;20;3640994;-47
2022/03/04 09:01:25;;;;;;;;;73.00;58.00;;;;;6.90;48.75;99592.03;6315617;20;3642292;-47
2022/03/04 09:03:56;;;;;;;;;65.00;46.33;;;;;6.48;49.48;99598.47;6315329;20;2888892;-46
2022/03/04 09:06:25;;;;;;;;;49.67;32.67;;;;;5.37;51.55;99597.97;6316056;20;3636686;-46
2022/03/04 09:08:55;;;;;;;;;70.67;53.00;;;;;6.19;49.30;99598.00;6316139;20;3645031;-45
2022/03/04 09:11:24;;;;;;;;;66.33;53.00;;;;;6.49;48.42;99605.53;6316406;20;2876384;-44
2022/03/04 09:13:54;;;;;;;;;69.33;52.00;;;;;6.82;47.42;99608.44;6316618;20;3634699;-45
2022/03/04 09:16:24;;;;;;;;;80.00;61.33;;;;;6.34;48.00;99607.94;6314294;20;3621054;-46
2022/03/04 09:18:52;;;;;;;;;65.00;46.00;;;;;6.17;49.43;99610.53;6314733;20;2876289;-45
2022/03/04 09:21:22;;;;;;;;;74.33;54.33;;;;;6.29;48.34;99609.97;6284315;20;3648247;-47
2022/03/04 09:23:52;;;;;;;;;75.67;56.00;;;;;6.40;48.49;99617.47;6314479;20;3643986;-47
2022/03/04 09:26:23;;;;;;;;;79.33;57.67;;;;;6.75;48.24;99612.31;6314587;20;3639191;-47
2022/03/04 09:28:53;;;;;;;;;70.33;53.33;;;;;7.03;47.52;99607.38;6316708;20;3630456;-48
2022/03/04 09:31:23;;;;;;;;;71.00;54.33;;;;;7.30;46.96;99609.66;6316086;20;3638794;-47
2022/03/04 09:33:53;;;;;;;;;70.67;52.67;;;;;7.10;47.01;99610.63;6316712;20;3642944;-46
2022/03/04 09:36:23;;;;;;;;;79.67;60.00;;;;;7.05;46.10;99615.31;6313470;20;3638804;-46
2022/03/04 09:38:51;;;;;;;;;56.50;45.00;;;;;7.15;46.32;99616.59;6315057;20;2851737;-44
2022/03/04 09:41:21;;;;;;;;;63.00;49.00;;;;;7.28;45.59;99616.88;6285493;20;2872210;-47
2022/03/04 09:43:56;;;;;;;;;68.33;52.33;;;;;8.18;44.06;99621.22;6281419;20;3645017;-45
2022/03/04 09:46:26;;;;;;;;;76.67;57.33;;;;;7.93;44.63;99617.16;6315097;20;3640846;-45
2022/03/04 09:48:56;;;;;;;;;79.67;56.00;;;;;8.31;43.10;99622.28;6314672;20;3653403;-48
2022/03/04 09:51:26;;;;;;;;;66.67;51.00;;;;;8.13;44.35;99613.44;6315216;20;3633552;-44
2022/03/04 09:53:55;;;;;;;;;75.00;55.00;;;;;8.26;44.37;99609.16;6322031;20;3644053;-45
2022/03/04 09:56:25;;;;;;;;;66.33;50.67;;;;;8.85;42.37;99614.06;6318777;20;2860664;-45
2022/03/04 09:58:54;;;;;;;;;71.00;56.33;;;;;8.87;42.07;99610.31;6320452;20;3627909;-45
2022/03/04 10:01:24;;;;;;;;;74.67;54.67;;;;;8.86;42.82;99613.97;6320634;20;3639806;-46
2022/03/04 10:03:55;;;;;;;;;56.50;46.50;;;;;7.35;43.97;99610.28;6322188;20;2844038;-49
2022/03/04 10:06:25;;;;;;;;;61.33;48.67;;;;;7.54;43.96;99604.88;6289297;20;3631496;-46
2022/03/04 10:08:54;;;;;;;;;70.33;53.33;;;;;7.16;46.45;99607.66;6318618;20;3643948;-45
2022/03/04 10:11:36;;;;;;;;;73.00;54.33;;;;;7.29;45.76;99601.69;6321083;20;3645218;-44
2022/03/04 10:14:08;;;;;;;;;68.33;54.00;;;;;6.92;47.46;99603.50;6316855;20;3629397;-44
2022/03/04 10:16:41;;;;;;;;;71.67;53.33;;;;;7.33;46.71;99603.28;6320259;20;3645097;-45
2022/03/04 10:19:20;;;;;;;;;76.33;57.33;;;;;6.09;49.11;99602.88;6317025;20;3649287;-45
2022/03/04 10:22:06;;;;;;;;;75.33;55.67;;;;;6.01;50.09;99598.81;6318058;20;3654371;-45
2022/03/04 10:24:39;;;;;;;;;65.50;47.00;;;;;5.81;49.78;99607.63;6320494;20;2870032;-46
2022/03/04 10:27:14;;;;;;;;;74.67;55.67;;;;;6.66;48.67;99607.38;6286324;20;3637761;-46
2022/03/04 10:29:50;;;;;;;;;73.67;57.67;;;;;5.84;50.15;99602.16;6318503;20;2882133;-46
2022/03/04 10:32:26;;;;;;;;;65.00;55.00;;;;;5.95;49.47;99599.97;6316746;20;2865897;-45
2022/03/04 10:35:11;;;;;;;;;74.33;56.67;;;;;5.89;51.63;99602.84;6286235;20;3639901;-42
2022/03/04 10:37:47;;;;;;;;;61.67;47.33;;;;;5.98;49.39;99597.16;6319496;20;2872348;-43
2022/03/04 10:40:22;;;;;;;;;70.33;56.33;;;;;6.15;49.66;99601.72;6318695;20;2878578;-45
2022/03/04 10:43:04;;;;;;;;;79.00;58.00;;;;;6.59;49.03;99606.81;6318336;20;3637770;-44
2022/03/04 10:45:36;;;;;;;;;80.00;61.33;;;;;6.17;51.29;99599.84;6320319;20;3641925;-44
2022/03/04 10:48:18;;;;;;;;;72.00;56.33;;;;;6.24;51.35;99611.97;6318478;20;2872298;-45
2022/03/04 10:50:55;;;;;;;;;73.00;55.67;;;;;6.65;50.61;99609.19;6320179;20;3633573;-44
2022/03/04 10:53:28;;;;;;;;;64.50;53.00;;;;;6.70;50.83;99599.19;6316214;20;2859658;-45
2022/03/04 10:56:07;;;;;;;;;71.67;56.33;;;;;6.61;52.08;99604.97;6286355;20;3627285;-47
2022/03/04 10:58:41;;;;;;;;;68.00;54.33;;;;;6.44;52.39;99610.19;6319481;20;2870232;-44
2022/03/04 11:01:21;;;;;;;;;79.33;56.00;;;;;6.74;52.41;99605.22;6320384;20;3647144;-42
2022/03/04 11:03:52;;;;;;;;;77.00;55.67;;;;;6.72;53.51;99607.13;6285327;20;3621096;-45
2022/03/04 11:06:22;;;;;;;;;77.33;58.00;;;;;6.52;53.81;99608.03;6315568;20;3645055;-44
2022/03/04 11:08:51;;;;;;;;;87.67;76.67;;;;;6.28;53.65;99608.22;6317044;20;3644005;-50
2022/03/04 11:11:22;;;;;;;;;75.33;57.00;;;;;6.86;52.51;99603.78;6316567;20;3635679;-49
2022/03/04 11:13:52;;;;;;;;;75.00;56.67;;;;;7.31;52.12;99607.84;6316887;20;3633568;-46
2022/03/04 11:16:23;;;;;;;;;78.00;57.33;;;;;7.00;52.51;99596.88;6317847;20;3631491;-47
2022/03/04 11:18:55;;;;;;;;;76.33;57.33;;;;;6.70;52.87;99607.19;6317754;20;3640909;-45
2022/03/04 11:21:25;;;;;;;;;77.33;58.00;;;;;6.82;52.35;99606.63;6320201;20;3628341;-45
2022/03/04 11:23:54;;;;;;;;;82.00;59.67;;;;;6.75;52.14;99606.97;6317585;20;3658539;-45
2022/03/04 11:26:30;;;;;;;;;82.67;58.67;;;;;6.63;53.61;99615.53;6285998;20;3660653;-43